Terminal Aerodrome Forecast
Issued by NWS

Home | Current Version | Previous Version | Text Only | Print | Product List | Glossary On
Versions: 1 2 3 4 5 6 7 8 9 10 11 12 13 14 15 16 17 18 19 20 21 22 23 24 25
000
FTUS43 KGRB 280028 AAA
TAFCWA
TAF AMD
KCWA 280028Z 2800/2824 08008KT 5SM SHRA SCT005 OVC040
      TEMPO 2800/2802 2SM -SHRA BR BKN009
     FM280200 12006KT P6SM VCSH OVC025
     FM280300 12006KT 5SM BR OVC015
     FM280400 13005KT 4SM BR OVC010
     FM280800 14004KT 3SM BR OVC003
     FM281400 16008KT 3SM BR OVC003
     FM281500 17009KT P6SM VCSH OVC003
     FM281800 18010KT P6SM VCSH BKN035
      AMD LTD TO CLD VIS AND WIND 2803/2811=

USA.gov is the U.S. government's official web portal to all federal, state and local government web resources and services.